Time;durP1;ratioP1;P1;durP2;ratioP2;P2;SDS_P1;SDS_P2;PMS_P1;PMS_P2;Temp;Humidity;BMP_temperature;BMP_pressure;BME280_temperature;BME280_humidity;BME280_pressure;Samples;Min_cycle;Max_cycle;Signal;HPM_P1;HPM_P2
2024/02/10 18:54:13;;;;;;;3.40;1.80;;;18.50;99.90;;;;;;4997206;28;67027;-33
2024/02/10 18:56:41;;;;;;;3.88;1.67;;;19.40;99.90;;;;;;4981835;28;67947;-31
2024/02/10 18:59:09;;;;;;;4.65;1.80;;;19.50;99.90;;;;;;4985175;28;20504;-30
2024/02/10 19:01:35;;;;;;;3.47;1.88;;;19.60;99.90;;;;;;4967651;28;20051;-30
2024/02/10 19:04:04;;;;;;;3.97;1.63;;;19.60;99.90;;;;;;4985175;28;20401;-34
2024/02/10 19:06:32;;;;;;;6.05;1.30;;;19.70;99.90;;;;;;4963120;28;20043;-43
2024/02/10 19:08:59;;;;;;;2.28;1.60;;;19.90;99.90;;;;;;4962288;28;20059;-21
2024/02/10 19:12:38;;;;;;;12.48;10.57;;;20.10;99.90;;;;;;5101310;27;20362;-64
2024/02/10 19:15:08;;;;;;;14.55;11.07;;;18.00;99.90;;;;;;5060373;28;20061;-67
2024/02/10 19:17:37;;;;;;;;;;;16.30;99.90;;;;;;5091106;28;20083;-66
2024/02/10 19:20:11;;;;;;;17.38;11.55;;;15.00;99.90;;;;;;5083661;28;19928;-63
2024/02/10 19:22:38;;;;;;;14.18;11.15;;;14.20;99.90;;;;;;5066860;28;20119;-64
2024/02/10 19:25:06;;;;;;;15.40;11.85;;;13.40;99.90;;;;;;5066649;28;20130;-65
2024/02/10 19:27:35;;;;;;;15.88;10.80;;;12.90;99.90;;;;;;5068152;28;20127;-64
2024/02/10 19:30:08;;;;;;;18.52;11.57;;;12.40;99.90;;;;;;5062983;28;20052;-64
2024/02/10 19:32:43;;;;;;;18.55;13.50;;;12.10;99.90;;;;;;5069859;28;20106;-64
2024/02/10 19:35:20;;;;;;;15.82;11.45;;;11.90;99.90;;;;;;5066084;28;20080;-64
2024/02/10 19:37:48;;;;;;;17.05;11.45;;;11.60;99.90;;;;;;5067773;28;20040;-63
2024/02/10 19:40:16;;;;;;;14.55;11.07;;;11.40;99.90;;;;;;5064018;28;20051;-64
2024/02/10 19:42:44;;;;;;;15.35;11.27;;;11.30;99.90;;;;;;5068989;28;20102;-63
2024/02/10 19:45:14;;;;;;;14.70;10.45;;;11.20;99.90;;;;;;5062637;28;20037;-63
2024/02/10 19:47:45;;;;;;;12.95;11.07;;;11.10;99.90;;;;;;5039565;28;20614;-64
2024/02/10 19:50:12;;;;;;;14.65;11.38;;;11.10;99.90;;;;;;5044562;28;63141;-65
2024/02/10 19:52:40;;;;;;;17.27;10.57;;;11.00;99.90;;;;;;5047924;28;20299;-64
2024/02/10 19:55:07;;;;;;;18.90;10.20;;;10.90;99.90;;;;;;5047553;28;20076;-63
2024/02/10 19:57:34;;;;;;;15.10;10.55;;;10.90;99.90;;;;;;5044757;28;20071;-65
2024/02/10 20:00:06;;;;;;;13.10;10.35;;;10.90;99.90;;;;;;5045497;28;20041;-64
2024/02/10 20:02:33;;;;;;;12.75;10.18;;;10.80;99.90;;;;;;5046493;28;20052;-63
2024/02/10 20:04:59;;;;;;;12.57;10.05;;;10.80;99.90;;;;;;5042962;28;20095;-62
2024/02/10 20:07:30;;;;;;;12.05;9.48;;;10.80;99.90;;;;;;5044363;28;20111;-64
2024/02/10 20:09:58;;;;;;;12.07;10.07;;;10.70;99.90;;;;;;5035558;28;20052;-65
2024/02/10 20:12:27;;;;;;;12.30;9.55;;;10.70;99.90;;;;;;5041123;28;20571;-65
2024/02/10 20:14:56;;;;;;;11.82;9.05;;;10.60;99.90;;;;;;5046073;28;20548;-63
2024/02/10 20:17:28;;;;;;;13.30;9.43;;;10.60;99.90;;;;;;5052228;28;20068;-65
2024/02/10 20:20:16;;;;;;;12.50;9.10;;;10.60;99.90;;;;;;5042948;28;20052;-64
2024/02/10 20:22:46;;;;;;;13.60;11.63;;;10.70;99.90;;;;;;5038685;28;20521;-64
2024/02/10 20:25:14;;;;;;;14.85;8.98;;;10.70;99.90;;;;;;5030564;28;20055;-64
2024/02/10 20:27:41;;;;;;;16.15;11.15;;;10.70;99.90;;;;;;5034273;28;20048;-64
2024/02/10 20:30:09;;;;;;;11.45;9.18;;;10.60;99.90;;;;;;5022494;28;20139;-64
2024/02/10 20:32:36;;;;;;;12.75;8.98;;;10.60;99.90;;;;;;5025073;28;20053;-65
2024/02/10 20:35:04;;;;;;;11.98;9.02;;;10.60;99.90;;;;;;5017713;28;20046;-65
2024/02/10 20:37:31;;;;;;;9.60;7.57;;;10.60;99.90;;;;;;5010265;28;20054;-65
2024/02/10 20:39:57;;;;;;;13.20;8.95;;;10.60;99.90;;;;;;5007160;28;20137;-65
2024/02/10 20:42:26;;;;;;;11.25;8.50;;;10.60;99.90;;;;;;5009301;28;20073;-65
2024/02/10 20:44:53;;;;;;;12.25;7.68;;;10.60;99.90;;;;;;5009357;28;20057;-65
2024/02/10 20:47:20;;;;;;;9.32;7.78;;;10.60;99.90;;;;;;5009543;28;20217;-64
2024/02/10 20:49:46;;;;;;;9.52;7.50;;;10.60;99.90;;;;;;4984100;28;21518;-64
2024/02/10 20:52:13;;;;;;;11.23;7.20;;;10.60;99.90;;;;;;4978735;28;20135;-66
2024/02/10 20:54:42;;;;;;;10.68;6.72;;;10.60;99.90;;;;;;4984096;28;20042;-65
2024/02/10 20:57:10;;;;;;;8.13;5.65;;;10.60;99.90;;;;;;4987664;28;20037;-65
2024/02/10 20:59:38;;;;;;;8.73;7.10;;;10.70;99.90;;;;;;4990347;28;20053;-65
2024/02/10 21:02:10;;;;;;;9.13;7.10;;;10.70;99.90;;;;;;4992987;28;20403;-65
2024/02/10 21:04:37;;;;;;;10.32;6.97;;;10.60;99.90;;;;;;5011699;28;20059;-67
2024/02/10 21:07:03;;;;;;;6.82;5.75;;;10.60;99.90;;;;;;5011206;28;20482;-66
2024/02/10 21:09:30;;;;;;;8.40;6.45;;;10.60;99.90;;;;;;5017837;28;20469;-66
2024/02/10 21:11:57;;;;;;;8.02;6.53;;;10.60;99.90;;;;;;5019813;28;20046;-66
2024/02/10 21:14:28;;;;;;;7.50;5.43;;;10.50;99.90;;;;;;5039815;28;20095;-66
2024/02/10 21:16:57;;;;;;;6.88;5.05;;;10.60;99.90;;;;;;5014848;28;20100;-66
2024/02/10 21:19:24;;;;;;;7.38;5.43;;;10.60;99.90;;;;;;5011766;28;20072;-66
2024/02/10 21:21:51;;;;;;;5.72;4.68;;;10.60;99.90;;;;;;5013654;28;20430;-67
2024/02/10 21:24:20;;;;;;;7.07;4.28;;;10.70;99.90;;;;;;5012314;28;20081;-67
2024/02/10 21:26:48;;;;;;;4.22;3.25;;;10.70;99.90;;;;;;5014157;28;20064;-66
2024/02/10 21:29:15;;;;;;;5.75;2.72;;;10.70;99.90;;;;;;5017636;28;20057;-66
2024/02/10 21:31:42;;;;;;;7.95;5.10;;;10.70;99.90;;;;;;5012372;28;20411;-66
2024/02/10 21:34:09;;;;;;;6.35;5.00;;;10.70;99.90;;;;;;5008204;28;20513;-66
2024/02/10 21:36:37;;;;;;;4.25;3.00;;;10.70;99.90;;;;;;5011755;28;20453;-66
2024/02/10 21:39:15;;;;;;;3.53;2.80;;;10.70;99.90;;;;;;5011093;28;20077;-66
2024/02/10 21:41:43;;;;;;;3.25;2.67;;;10.70;99.90;;;;;;5014421;28;20057;-66
2024/02/10 21:44:10;;;;;;;6.88;3.00;;;10.60;99.90;;;;;;5010606;28;20453;-66
2024/02/10 21:46:37;;;;;;;4.07;3.15;;;10.60;99.90;;;;;;5013461;28;20061;-66
2024/02/10 21:49:04;;;;;;;3.47;2.70;;;10.60;99.90;;;;;;5012618;28;20057;-66
2024/02/10 21:51:35;;;;;;;4.88;2.40;;;10.50;99.90;;;;;;5015864;28;20449;-66
2024/02/10 21:54:05;;;;;;;2.65;1.90;;;10.40;99.90;;;;;;5016968;28;20414;-66
2024/02/10 21:56:39;;;;;;;1.33;1.23;;;10.20;99.90;;;;;;5014339;28;20045;-66
2024/02/10 21:59:10;;;;;;;0.80;0.80;;;10.00;99.90;;;;;;5013925;28;20141;-66
2024/02/10 22:01:38;;;;;;;0.90;0.60;;;9.80;99.90;;;;;;5010442;28;20050;-66
2024/02/10 22:04:06;;;;;;;0.50;0.50;;;9.60;99.90;;;;;;5013239;28;20045;-66
2024/02/10 22:06:34;;;;;;;0.73;0.47;;;9.40;99.90;;;;;;5015648;28;20081;-66
2024/02/10 22:09:04;;;;;;;0.75;0.70;;;9.30;99.90;;;;;;5015308;28;20060;-66
2024/02/10 22:11:31;;;;;;;2.00;0.57;;;9.20;99.90;;;;;;5011340;28;20140;-65
2024/02/10 22:13:58;;;;;;;0.82;0.40;;;9.10;99.90;;;;;;5015697;28;20046;-66
2024/02/10 22:16:25;;;;;;;1.55;0.40;;;9.10;99.90;;;;;;5012597;28;20046;-66
2024/02/10 22:18:52;;;;;;;0.47;0.43;;;9.00;99.90;;;;;;5011079;28;20108;-67
2024/02/10 22:21:19;;;;;;;0.88;0.47;;;9.00;99.90;;;;;;5013729;28;20113;-67
2024/02/10 22:23:46;;;;;;;0.30;0.30;;;9.00;99.90;;;;;;5005343;28;20046;-66
2024/02/10 22:26:14;;;;;;;0.45;0.40;;;8.90;99.90;;;;;;5006647;28;20096;-67
2024/02/10 22:28:41;;;;;;;1.45;0.35;;;8.90;99.90;;;;;;5012728;28;20050;-67
2024/02/10 22:31:08;;;;;;;0.40;0.40;;;8.80;99.90;;;;;;5013613;28;20056;-67
2024/02/10 22:33:35;;;;;;;0.50;0.50;;;8.70;99.90;;;;;;5014111;28;20046;-67
2024/02/10 22:36:02;;;;;;;0.80;0.40;;;8.70;99.90;;;;;;5014727;28;20049;-67
2024/02/10 22:38:29;;;;;;;0.40;0.40;;;8.70;99.90;;;;;;5010973;28;20479;-67
2024/02/10 22:40:57;;;;;;;0.35;0.35;;;8.70;99.90;;;;;;5015258;28;20046;-67
2024/02/10 22:43:25;;;;;;;1.38;0.40;;;8.60;99.90;;;;;;5013232;28;20050;-67
2024/02/10 22:45:51;;;;;;;0.40;0.40;;;8.50;99.90;;;;;;5018998;28;20421;-67
2024/02/10 22:48:19;;;;;;;0.40;0.40;;;8.50;99.90;;;;;;5017495;28;20516;-67
2024/02/10 22:50:46;;;;;;;2.60;0.30;;;8.50;99.90;;;;;;5014767;28;20526;-67
2024/02/10 22:53:13;;;;;;;0.40;0.28;;;8.40;99.90;;;;;;5014688;28;20071;-67
2024/02/10 22:55:45;;;;;;;0.40;0.40;;;8.40;99.90;;;;;;5015493;28;20054;-67
2024/02/10 22:58:14;;;;;;;0.50;0.40;;;8.40;99.90;;;;;;5013638;28;20042;-67
2024/02/10 23:00:45;;;;;;;0.40;0.40;;;8.40;99.90;;;;;;5015960;28;20426;-67
2024/02/10 23:03:14;;;;;;;0.68;0.60;;;8.30;99.90;;;;;;5010783;28;20486;-67
2024/02/10 23:05:41;;;;;;;1.90;1.30;;;8.30;99.90;;;;;;5006597;28;20057;-67
2024/02/10 23:08:12;;;;;;;1.17;0.90;;;8.20;99.90;;;;;;5012131;28;20054;-67
2024/02/10 23:10:39;;;;;;;1.17;0.40;;;8.00;99.90;;;;;;5011702;28;20050;-67
2024/02/10 23:13:06;;;;;;;0.65;0.40;;;8.00;99.90;;;;;;5018054;28;20045;-67
2024/02/10 23:15:40;;;;;;;0.30;0.30;;;7.90;99.90;;;;;;5012770;28;20076;-67
2024/02/10 23:18:10;;;;;;;0.50;0.50;;;7.90;99.90;;;;;;5013011;28;20130;-67
2024/02/10 23:20:47;;;;;;;1.92;0.52;;;7.80;99.90;;;;;;5010750;28;20593;-67
2024/02/10 23:23:17;;;;;;;0.40;0.40;;;7.90;99.90;;;;;;5010479;28;20162;-67
2024/02/10 23:25:48;;;;;;;0.40;0.40;;;7.90;99.90;;;;;;5011317;28;20073;-67
2024/02/10 23:28:15;;;;;;;2.15;0.40;;;7.80;99.90;;;;;;5013972;28;20140;-67
2024/02/10 23:30:49;;;;;;;0.35;0.35;;;7.70;99.90;;;;;;5006624;28;20128;-67
2024/02/10 23:33:19;;;;;;;1.20;0.43;;;7.70;99.90;;;;;;5014653;28;20054;-67
2024/02/10 23:35:47;;;;;;;0.45;0.40;;;7.60;99.90;;;;;;5014712;28;20575;-67
2024/02/10 23:38:14;;;;;;;0.50;0.50;;;7.50;99.90;;;;;;5011084;28;20149;-67
2024/02/10 23:40:45;;;;;;;0.40;0.40;;;7.50;99.90;;;;;;5013981;28;20415;-67
2024/02/10 23:43:12;;;;;;;1.60;0.50;;;7.40;99.90;;;;;;5011957;28;20289;-67
2024/02/10 23:45:43;;;;;;;0.40;0.40;;;7.40;99.90;;;;;;5016146;28;20057;-67
2024/02/10 23:48:10;;;;;;;;;;;7.30;99.90;;;;;;5014692;28;20099;-67
2024/02/10 23:50:37;;;;;;;0.65;0.50;;;7.30;99.90;;;;;;5012892;28;19929;-67
2024/02/10 23:53:04;;;;;;;0.50;0.47;;;7.30;99.90;;;;;;5010381;28;20325;-67
2024/02/10 23:55:33;;;;;;;0.50;0.50;;;7.20;99.90;;;;;;5009354;28;20038;-67
2024/02/10 23:58:01;;;;;;;0.40;0.40;;;7.20;99.90;;;;;;5015373;28;20057;-67
